Time;durP1;ratioP1;P1;durP2;ratioP2;P2;SDS_P1;SDS_P2;PMS_P1;PMS_P2;Temp;Humidity;BMP_temperature;BMP_pressure;BME280_temperature;BME280_humidity;BME280_pressure;Samples;Min_cycle;Max_cycle;Signal;HPM_P1;HPM_P2
2021/06/17 00:01:14;;;;;;;4.00;2.70;;;;;;;;;;5100531;28;20115;-67
2021/06/17 00:03:39;;;;;;;8.32;2.92;;;;;;;;;;5108502;28;20073;-66
2021/06/17 00:06:04;;;;;;;5.40;2.78;;;;;;;;;;5107760;28;20081;-68
2021/06/17 00:08:30;;;;;;;5.15;2.80;;;;;;;;;;5113289;28;20031;-67
2021/06/17 00:10:55;;;;;;;6.57;2.55;;;;;;;;;;5114222;28;20055;-68
2021/06/17 00:13:23;;;;;;;4.88;2.42;;;;;;;;;;5101586;28;20019;-67
2021/06/17 00:15:49;;;;;;;3.42;2.17;;;;;;;;;;5115807;28;20063;-67
2021/06/17 00:18:15;;;;;;;3.20;2.20;;;;;;;;;;5115673;28;20028;-67
2021/06/17 00:20:42;;;;;;;4.70;2.30;;;;;;;;;;5116365;28;20030;-66
2021/06/17 00:23:08;;;;;;;6.85;2.08;;;;;;;;;;5116163;28;20383;-67
2021/06/17 00:25:34;;;;;;;4.68;2.33;;;;;;;;;;5097064;28;20099;-68
2021/06/17 00:28:00;;;;;;;3.03;2.47;;;;;;;;;;5095879;28;20055;-67
2021/06/17 00:30:26;;;;;;;5.40;2.90;;;;;;;;;;5095823;28;20103;-67
2021/06/17 00:32:52;;;;;;;9.80;3.58;;;;;;;;;;5095653;28;20051;-67
2021/06/17 00:35:18;;;;;;;8.00;3.80;;;;;;;;;;5114021;28;20430;-67
2021/06/17 00:37:43;;;;;;;8.55;3.70;;;;;;;;;;5115604;28;20039;-67
2021/06/17 00:40:10;;;;;;;8.00;3.75;;;;;;;;;;5116107;28;20061;-67
2021/06/17 00:42:36;;;;;;;7.43;4.05;;;;;;;;;;5115661;28;20027;-67
2021/06/17 00:45:03;;;;;;;9.02;3.95;;;;;;;;;;5112300;28;20076;-67
2021/06/17 00:47:28;;;;;;;8.43;4.50;;;;;;;;;;5113767;28;20616;-66
2021/06/17 00:49:53;;;;;;;11.48;3.75;;;;;;;;;;5115761;28;20027;-67
2021/06/17 00:52:19;;;;;;;14.00;3.88;;;;;;;;;;5115365;28;20050;-67
2021/06/17 00:54:44;;;;;;;7.35;3.50;;;;;;;;;;5115314;28;20028;-67
2021/06/17 00:57:10;;;;;;;11.93;3.72;;;;;;;;;;5115371;28;20361;-67
2021/06/17 00:59:36;;;;;;;13.40;3.30;;;;;;;;;;5114661;28;20063;-67
2021/06/17 01:02:01;;;;;;;8.02;3.80;;;;;;;;;;5115296;28;20026;-67
2021/06/17 01:04:27;;;;;;;14.32;3.95;;;;;;;;;;5115066;28;20020;-67
2021/06/17 01:06:53;;;;;;;11.75;3.92;;;;;;;;;;5115358;28;20092;-67
2021/06/17 01:09:36;;;;;;;13.13;3.30;;;;;;;;;;5115121;28;20076;-67
2021/06/17 01:12:09;;;;;;;8.88;3.60;;;;;;;;;;5114625;28;20043;-67
2021/06/17 01:14:40;;;;;;;13.85;3.70;;;;;;;;;;5115279;28;20035;-67
2021/06/17 01:17:09;;;;;;;10.30;3.35;;;;;;;;;;5114866;28;20028;-67
2021/06/17 01:19:43;;;;;;;12.57;3.72;;;;;;;;;;5114938;28;20043;-67
2021/06/17 01:22:29;;;;;;;15.35;3.80;;;;;;;;;;5114446;28;20057;-67
2021/06/17 01:25:23;;;;;;;10.63;4.22;;;;;;;;;;5094681;28;20469;-67
2021/06/17 01:27:57;;;;;;;13.45;3.47;;;;;;;;;;5024878;28;20061;-66
2021/06/17 01:30:24;;;;;;;11.02;3.28;;;;;;;;;;5111688;28;20035;-68
2021/06/17 01:32:56;;;;;;;7.28;3.25;;;;;;;;;;5114832;28;20122;-67
2021/06/17 01:35:24;;;;;;;10.50;3.70;;;;;;;;;;5114023;28;20063;-67
2021/06/17 01:37:51;;;;;;;10.95;3.88;;;;;;;;;;5109269;28;20043;-66
2021/06/17 01:40:17;;;;;;;13.32;4.25;;;;;;;;;;5113023;28;20039;-67
2021/06/17 01:42:43;;;;;;;12.30;3.90;;;;;;;;;;5111978;28;20065;-67
2021/06/17 01:45:10;;;;;;;16.58;3.47;;;;;;;;;;5094146;28;20476;-67
2021/06/17 01:47:36;;;;;;;8.93;3.47;;;;;;;;;;5111464;28;20058;-67
2021/06/17 01:50:02;;;;;;;10.70;3.30;;;;;;;;;;5114685;28;20055;-67
2021/06/17 01:52:29;;;;;;;9.40;3.88;;;;;;;;;;5114203;28;20468;-67
2021/06/17 01:54:56;;;;;;;14.18;4.25;;;;;;;;;;5114205;28;20117;-67
2021/06/17 01:57:22;;;;;;;13.32;3.50;;;;;;;;;;5113761;28;20026;-67
2021/06/17 01:59:48;;;;;;;14.23;4.00;;;;;;;;;;5113412;28;20027;-67
2021/06/17 02:02:15;;;;;;;14.75;4.45;;;;;;;;;;5113486;28;20035;-68
2021/06/17 02:04:41;;;;;;;13.02;4.40;;;;;;;;;;5113901;28;20020;-67
2021/06/17 02:07:08;;;;;;;20.10;4.32;;;;;;;;;;5114000;28;20051;-67
2021/06/17 02:09:33;;;;;;;12.18;3.92;;;;;;;;;;5114283;28;20031;-67
2021/06/17 02:11:59;;;;;;;13.20;4.30;;;;;;;;;;5111544;28;20055;-68
2021/06/17 02:14:24;;;;;;;10.00;3.95;;;;;;;;;;5104870;28;20024;-67
2021/06/17 02:16:51;;;;;;;17.05;4.90;;;;;;;;;;5113605;28;20418;-68
2021/06/17 02:19:17;;;;;;;13.10;4.80;;;;;;;;;;5114005;28;20036;-67
2021/06/17 02:21:44;;;;;;;15.25;3.95;;;;;;;;;;5113464;28;20467;-67
2021/06/17 02:24:10;;;;;;;15.45;4.18;;;;;;;;;;5113857;28;20088;-67
2021/06/17 02:26:45;;;;;;;9.45;4.28;;;;;;;;;;5113943;28;20016;-67
2021/06/17 02:29:12;;;;;;;12.93;4.32;;;;;;;;;;5113233;28;20464;-67
2021/06/17 02:31:39;;;;;;;12.75;4.50;;;;;;;;;;5113643;28;20039;-67
2021/06/17 02:34:04;;;;;;;10.82;4.18;;;;;;;;;;5113511;28;20027;-67
2021/06/17 02:36:30;;;;;;;15.55;5.38;;;;;;;;;;5113461;28;20482;-67
2021/06/17 02:38:57;;;;;;;15.57;4.57;;;;;;;;;;5113578;28;20035;-68
2021/06/17 02:41:24;;;;;;;9.82;5.38;;;;;;;;;;5113605;28;20023;-67
2021/06/17 02:43:52;;;;;;;11.82;5.80;;;;;;;;;;5113714;28;20035;-67
2021/06/17 02:46:17;;;;;;;11.20;5.68;;;;;;;;;;5113422;28;20054;-67
2021/06/17 02:48:42;;;;;;;12.77;5.60;;;;;;;;;;5113034;28;20452;-67
2021/06/17 02:51:07;;;;;;;12.18;5.55;;;;;;;;;;5095644;28;20383;-67
2021/06/17 02:53:33;;;;;;;12.02;6.25;;;;;;;;;;5113137;28;20043;-68
2021/06/17 02:55:59;;;;;;;11.07;4.70;;;;;;;;;;5113477;28;20031;-67
2021/06/17 02:58:42;;;;;;;10.43;5.15;;;;;;;;;;5112943;28;20387;-68
2021/06/17 03:01:17;;;;;;;13.80;5.50;;;;;;;;;;5109587;28;20028;-67
2021/06/17 03:03:52;;;;;;;16.67;6.43;;;;;;;;;;5113081;28;20034;-66
2021/06/17 03:06:50;;;;;;;12.43;5.15;;;;;;;;;;5104930;28;20472;-67
2021/06/17 03:09:19;;;;;;;14.00;5.03;;;;;;;;;;5060966;28;20044;-67
2021/06/17 03:11:47;;;;;;;12.95;5.68;;;;;;;;;;5117143;28;20051;-67
2021/06/17 03:14:14;;;;;;;10.10;5.60;;;;;;;;;;5117720;28;20012;-67
2021/06/17 03:16:41;;;;;;;13.70;6.60;;;;;;;;;;5117195;28;20072;-67
2021/06/17 03:19:07;;;;;;;14.05;5.47;;;;;;;;;;5117020;28;20114;-67
2021/06/17 03:21:34;;;;;;;13.48;5.70;;;;;;;;;;5117473;28;20020;-67
2021/06/17 03:24:00;;;;;;;13.38;5.40;;;;;;;;;;5117041;28;20059;-68
2021/06/17 03:26:26;;;;;;;12.13;5.70;;;;;;;;;;5117178;28;20035;-66
2021/06/17 03:28:53;;;;;;;17.92;6.20;;;;;;;;;;5117081;28;20094;-66
2021/06/17 03:31:18;;;;;;;9.98;5.47;;;;;;;;;;5116283;28;20102;-67
2021/06/17 03:33:45;;;;;;;18.50;6.38;;;;;;;;;;5116696;28;20142;-66
2021/06/17 03:36:10;;;;;;;16.38;6.68;;;;;;;;;;5116833;28;20047;-67
2021/06/17 03:38:37;;;;;;;12.88;5.53;;;;;;;;;;5117120;28;20493;-68
2021/06/17 03:41:03;;;;;;;11.27;5.35;;;;;;;;;;5116954;28;20055;-68
2021/06/17 03:43:30;;;;;;;9.77;5.50;;;;;;;;;;5117101;28;20019;-68
2021/06/17 03:45:57;;;;;;;11.23;5.35;;;;;;;;;;5116519;28;20027;-67
2021/06/17 03:48:23;;;;;;;18.17;5.70;;;;;;;;;;5116933;28;20038;-68
2021/06/17 03:50:48;;;;;;;15.07;5.75;;;;;;;;;;5116411;28;20453;-68
2021/06/17 03:53:14;;;;;;;12.73;5.95;;;;;;;;;;5116802;28;20035;-67
2021/06/17 03:55:42;;;;;;;10.75;5.40;;;;;;;;;;5116485;28;20024;-67
2021/06/17 03:58:07;;;;;;;13.80;5.70;;;;;;;;;;5116279;28;20361;-68
2021/06/17 04:00:33;;;;;;;11.88;5.20;;;;;;;;;;5116119;28;20103;-67
2021/06/17 04:03:00;;;;;;;28.85;6.72;;;;;;;;;;5116410;28;20081;-67
2021/06/17 04:05:26;;;;;;;13.82;5.93;;;;;;;;;;5116050;28;20031;-67
2021/06/17 04:07:55;;;;;;;9.93;5.63;;;;;;;;;;5116530;28;20028;-67
2021/06/17 04:10:21;;;;;;;14.50;6.63;;;;;;;;;;5116384;28;20153;-67
2021/06/17 04:12:48;;;;;;;11.73;7.03;;;;;;;;;;5116428;28;20065;-67
2021/06/17 04:15:15;;;;;;;13.90;7.43;;;;;;;;;;5116364;28;20030;-67
2021/06/17 04:17:41;;;;;;;12.82;7.00;;;;;;;;;;5116026;28;20472;-67
2021/06/17 04:20:09;;;;;;;17.73;6.70;;;;;;;;;;5115285;28;20020;-67
2021/06/17 04:22:36;;;;;;;13.07;6.85;;;;;;;;;;5115941;28;20140;-67
2021/06/17 04:25:05;;;;;;;15.50;7.22;;;;;;;;;;5115828;28;20035;-67
2021/06/17 04:27:30;;;;;;;12.52;6.65;;;;;;;;;;5115963;28;20059;-67
2021/06/17 04:29:57;;;;;;;12.02;6.88;;;;;;;;;;5115944;28;20116;-66
2021/06/17 04:32:23;;;;;;;15.45;7.60;;;;;;;;;;5114868;28;20066;-67
2021/06/17 04:34:50;;;;;;;15.57;7.53;;;;;;;;;;5115295;28;20530;-66
2021/06/17 04:37:18;;;;;;;15.55;7.03;;;;;;;;;;5108470;28;20028;-67
2021/06/17 04:39:43;;;;;;;11.52;7.20;;;;;;;;;;5115791;28;20039;-67
2021/06/17 04:42:09;;;;;;;15.77;8.98;;;;;;;;;;5115356;28;20028;-67
2021/06/17 04:44:38;;;;;;;14.18;8.07;;;;;;;;;;5115781;28;20032;-67
2021/06/17 04:47:04;;;;;;;18.02;7.93;;;;;;;;;;5115476;28;20031;-67
2021/06/17 04:49:32;;;;;;;13.20;8.38;;;;;;;;;;5115705;28;20023;-67
2021/06/17 04:51:57;;;;;;;16.05;8.35;;;;;;;;;;5115958;28;20114;-67
2021/06/17 04:54:23;;;;;;;17.52;9.00;;;;;;;;;;5115084;28;20450;-67
2021/06/17 04:56:48;;;;;;;20.30;8.98;;;;;;;;;;5115350;28;20038;-67
2021/06/17 04:59:14;;;;;;;14.80;8.88;;;;;;;;;;5115462;28;20035;-68
2021/06/17 05:01:41;;;;;;;15.30;8.40;;;;;;;;;;5112351;28;20084;-67
2021/06/17 05:04:07;;;;;;;13.25;8.75;;;;;;;;;;5114345;28;20016;-67
2021/06/17 05:06:35;;;;;;;16.52;9.10;;;;;;;;;;5115246;28;20460;-67
2021/06/17 05:11:44;;;;;;;12.55;9.20;;;;;;;;;;5115261;28;20050;-66
2021/06/17 05:14:09;;;;;;;15.57;9.60;;;;;;;;;;5114525;28;20027;-67
2021/06/17 05:16:35;;;;;;;16.38;9.27;;;;;;;;;;5115811;28;20015;-67
2021/06/17 05:19:00;;;;;;;14.07;8.63;;;;;;;;;;5114420;28;20032;-67
2021/06/17 05:21:25;;;;;;;15.60;8.70;;;;;;;;;;5114886;28;20411;-68
2021/06/17 05:23:51;;;;;;;16.85;8.40;;;;;;;;;;5114732;28;20028;-67
2021/06/17 05:26:16;;;;;;;12.23;8.15;;;;;;;;;;5115021;28;20519;-67
2021/06/17 05:28:41;;;;;;;19.75;8.73;;;;;;;;;;5114715;28;20040;-67
2021/06/17 05:31:08;;;;;;;11.48;7.38;;;;;;;;;;5114072;28;20345;-67
2021/06/17 05:33:34;;;;;;;12.30;6.68;;;;;;;;;;5114376;28;20019;-67
2021/06/17 05:36:01;;;;;;;11.85;7.30;;;;;;;;;;5114548;28;20080;-67
2021/06/17 05:38:28;;;;;;;11.82;6.80;;;;;;;;;;5114765;28;20040;-67
2021/06/17 05:40:54;;;;;;;11.50;6.40;;;;;;;;;;5114392;28;20460;-67
2021/06/17 05:43:22;;;;;;;11.70;6.47;;;;;;;;;;5114077;28;20038;-67
2021/06/17 05:45:48;;;;;;;9.82;6.10;;;;;;;;;;5114749;28;20072;-67
2021/06/17 05:48:14;;;;;;;9.02;5.20;;;;;;;;;;5114164;28;20027;-67
2021/06/17 05:50:39;;;;;;;11.05;6.32;;;;;;;;;;5114750;28;20067;-67
2021/06/17 05:53:05;;;;;;;11.48;5.53;;;;;;;;;;5114273;28;20372;-67
2021/06/17 05:55:30;;;;;;;8.65;5.45;;;;;;;;;;5114673;28;20058;-67
2021/06/17 05:57:55;;;;;;;15.18;5.70;;;;;;;;;;5114153;28;20032;-67
2021/06/17 06:00:21;;;;;;;7.40;5.00;;;;;;;;;;5095641;28;20035;-68
2021/06/17 06:02:47;;;;;;;14.30;6.28;;;;;;;;;;5111797;28;20057;-67
2021/06/17 06:05:12;;;;;;;10.57;5.80;;;;;;;;;;5107768;28;20131;-67
2021/06/17 06:07:39;;;;;;;11.43;6.18;;;;;;;;;;5114286;28;20016;-67
2021/06/17 06:10:05;;;;;;;9.32;5.57;;;;;;;;;;5113766;28;20106;-67
2021/06/17 06:12:30;;;;;;;12.50;6.57;;;;;;;;;;5113982;28;20046;-67
2021/06/17 06:14:56;;;;;;;12.38;6.32;;;;;;;;;;5113321;28;20023;-67
2021/06/17 06:17:21;;;;;;;12.90;6.85;;;;;;;;;;5113533;28;20081;-67
2021/06/17 06:19:46;;;;;;;13.50;6.25;;;;;;;;;;5113044;28;20043;-67
2021/06/17 06:22:12;;;;;;;12.35;7.35;;;;;;;;;;5112677;28;20047;-67
2021/06/17 06:24:37;;;;;;;15.60;7.82;;;;;;;;;;5113341;28;20019;-67
2021/06/17 06:27:03;;;;;;;14.57;7.65;;;;;;;;;;5113394;28;20027;-67
2021/06/17 06:29:28;;;;;;;12.52;6.63;;;;;;;;;;5113528;28;20460;-67
2021/06/17 06:31:54;;;;;;;12.02;7.47;;;;;;;;;;5113472;28;20023;-67
2021/06/17 06:34:20;;;;;;;11.65;7.68;;;;;;;;;;5113425;28;20114;-67
2021/06/17 06:36:45;;;;;;;15.57;8.05;;;;;;;;;;5112868;28;20032;-67
2021/06/17 06:39:10;;;;;;;13.95;6.97;;;;;;;;;;5112970;28;20028;-67
2021/06/17 06:41:37;;;;;;;15.32;7.35;;;;;;;;;;5113172;28;20027;-67
2021/06/17 06:44:02;;;;;;;12.23;6.72;;;;;;;;;;5113125;28;20027;-67
2021/06/17 06:46:28;;;;;;;10.07;7.10;;;;;;;;;;5113335;28;20380;-67
2021/06/17 06:48:53;;;;;;;10.75;7.40;;;;;;;;;;5113224;28;20476;-67
2021/06/17 06:51:18;;;;;;;14.07;7.00;;;;;;;;;;5113060;28;20031;-67
2021/06/17 06:53:44;;;;;;;12.45;7.30;;;;;;;;;;5112480;28;20074;-66
2021/06/17 06:56:09;;;;;;;12.98;6.88;;;;;;;;;;5112964;28;20038;-67
2021/06/17 06:58:34;;;;;;;11.95;6.75;;;;;;;;;;5112909;28;20043;-67
2021/06/17 07:00:59;;;;;;;13.90;7.53;;;;;;;;;;5112701;28;20019;-66
2021/06/17 07:03:25;;;;;;;17.00;7.53;;;;;;;;;;5112249;28;20480;-67
2021/06/17 07:05:50;;;;;;;21.77;7.13;;;;;;;;;;5112896;28;20016;-67
2021/06/17 07:08:17;;;;;;;15.73;7.18;;;;;;;;;;5106162;28;20011;-67
2021/06/17 07:10:46;;;;;;;13.18;7.38;;;;;;;;;;5102990;28;21064;-66
2021/06/17 07:13:14;;;;;;;10.82;6.95;;;;;;;;;;5092785;28;20041;-67
2021/06/17 07:15:39;;;;;;;15.27;7.75;;;;;;;;;;5103247;28;20019;-67
2021/06/17 07:18:04;;;;;;;10.80;7.05;;;;;;;;;;5083746;28;20047;-66
2021/06/17 07:20:30;;;;;;;13.95;6.82;;;;;;;;;;5111745;28;20087;-67
2021/06/17 07:22:55;;;;;;;13.40;7.00;;;;;;;;;;5104632;28;20440;-67
2021/06/17 07:25:24;;;;;;;13.50;7.15;;;;;;;;;;5106723;28;20031;-67
2021/06/17 07:27:50;;;;;;;14.95;7.75;;;;;;;;;;5110819;28;20032;-67
2021/06/17 07:30:15;;;;;;;13.50;6.25;;;;;;;;;;5105209;28;20356;-66
2021/06/17 07:32:41;;;;;;;17.13;7.05;;;;;;;;;;5112131;28;20812;-67
2021/06/17 07:35:07;;;;;;;13.63;7.38;;;;;;;;;;5105095;28;20054;-67
2021/06/17 07:37:32;;;;;;;11.55;6.63;;;;;;;;;;5112647;28;20038;-67
2021/06/17 07:39:57;;;;;;;14.07;7.53;;;;;;;;;;5099229;28;20024;-67
2021/06/17 07:42:23;;;;;;;10.48;6.15;;;;;;;;;;5111589;28;20028;-67
2021/06/17 07:44:50;;;;;;;9.63;5.75;;;;;;;;;;5112340;28;20019;-66
2021/06/17 07:47:15;;;;;;;15.18;6.38;;;;;;;;;;5112404;28;20038;-68
2021/06/17 07:49:40;;;;;;;19.38;5.80;;;;;;;;;;5111745;28;20012;-67
2021/06/17 07:52:06;;;;;;;9.88;5.57;;;;;;;;;;5108041;28;20019;-67
2021/06/17 07:54:31;;;;;;;12.55;6.63;;;;;;;;;;5107241;28;20072;-68
2021/06/17 07:56:57;;;;;;;8.48;5.30;;;;;;;;;;5116350;28;20015;-68
2021/06/17 07:59:23;;;;;;;8.43;4.85;;;;;;;;;;5116033;28;20034;-67
2021/06/17 08:01:50;;;;;;;12.48;5.45;;;;;;;;;;5115884;28;20072;-66
2021/06/17 08:04:16;;;;;;;10.15;5.65;;;;;;;;;;5115951;28;20039;-67
2021/06/17 08:06:41;;;;;;;13.15;5.00;;;;;;;;;;5116311;28;20070;-67
2021/06/17 08:09:06;;;;;;;10.35;5.63;;;;;;;;;;5116420;28;20027;-67
2021/06/17 08:11:31;;;;;;;12.55;5.28;;;;;;;;;;5116325;28;20076;-67
2021/06/17 08:13:57;;;;;;;11.15;6.25;;;;;;;;;;5115764;28;20016;-66
2021/06/17 08:16:22;;;;;;;14.55;6.07;;;;;;;;;;5116261;28;20080;-68
2021/06/17 08:18:49;;;;;;;10.20;6.57;;;;;;;;;;5111488;28;20110;-66
2021/06/17 08:21:15;;;;;;;9.85;5.85;;;;;;;;;;5112862;28;20019;-67
2021/06/17 08:23:40;;;;;;;11.93;6.38;;;;;;;;;;5111172;28;20035;-67
2021/06/17 08:26:07;;;;;;;11.90;6.97;;;;;;;;;;5113803;28;20375;-67
2021/06/17 08:28:32;;;;;;;10.38;6.47;;;;;;;;;;5112631;28;20435;-67
2021/06/17 08:30:58;;;;;;;12.88;6.28;;;;;;;;;;5113353;28;20023;-67
2021/06/17 08:33:23;;;;;;;14.88;7.15;;;;;;;;;;5112677;28;20027;-67
2021/06/17 08:35:51;;;;;;;16.23;6.63;;;;;;;;;;5113207;28;20019;-67
2021/06/17 08:38:17;;;;;;;9.85;6.30;;;;;;;;;;5113086;28;20427;-67
2021/06/17 08:40:42;;;;;;;14.40;7.75;;;;;;;;;;5109276;28;20076;-66
2021/06/17 08:43:08;;;;;;;18.40;7.65;;;;;;;;;;5112402;28;20023;-67
2021/06/17 08:45:33;;;;;;;12.40;6.30;;;;;;;;;;5111896;28;20513;-66
2021/06/17 08:47:58;;;;;;;17.67;7.80;;;;;;;;;;5113226;28;20112;-67
2021/06/17 08:50:24;;;;;;;13.13;7.10;;;;;;;;;;5111657;28;20046;-68
2021/06/17 08:52:49;;;;;;;14.30;7.88;;;;;;;;;;5112456;28;20059;-68
2021/06/17 08:55:18;;;;;;;16.77;7.55;;;;;;;;;;5111888;28;20090;-67
2021/06/17 08:57:44;;;;;;;11.75;7.20;;;;;;;;;;5112063;28;20066;-67
2021/06/17 09:00:10;;;;;;;14.50;8.02;;;;;;;;;;5111140;28;20103;-67
2021/06/17 09:02:35;;;;;;;13.00;7.15;;;;;;;;;;5112678;28;20419;-67
2021/06/17 09:05:16;;;;;;;13.65;7.00;;;;;;;;;;5111904;28;20027;-67
2021/06/17 09:07:45;;;;;;;11.60;6.30;;;;;;;;;;5105406;28;20077;-67
2021/06/17 09:10:10;;;;;;;10.98;6.38;;;;;;;;;;5110666;28;20471;-67
2021/06/17 09:12:46;;;;;;;11.77;6.57;;;;;;;;;;5110661;28;20069;-68
2021/06/17 09:15:12;;;;;;;14.10;6.85;;;;;;;;;;5109705;28;20065;-67
2021/06/17 09:17:37;;;;;;;13.40;7.28;;;;;;;;;;5111946;28;20023;-67
2021/06/17 09:20:03;;;;;;;11.82;6.38;;;;;;;;;;5111615;28;20046;-67
2021/06/17 09:22:28;;;;;;;12.77;6.47;;;;;;;;;;5111846;28;20024;-67
2021/06/17 09:24:54;;;;;;;15.60;7.03;;;;;;;;;;5112060;28;20028;-67
2021/06/17 09:27:26;;;;;;;11.95;6.03;;;;;;;;;;5111775;28;20103;-67
2021/06/17 09:29:53;;;;;;;12.63;5.97;;;;;;;;;;5102550;28;20531;-68
2021/06/17 09:32:19;;;;;;;16.63;6.05;;;;;;;;;;5109236;28;20063;-67
2021/06/17 09:34:45;;;;;;;12.45;5.20;;;;;;;;;;5108420;28;20020;-67
2021/06/17 09:37:46;;;;;;;11.10;5.57;;;;;;;;;;5091424;28;20027;-67
2021/06/17 09:40:25;;;;;;;12.43;5.75;;;;;;;;;;4989286;28;20068;-67
2021/06/17 09:42:51;;;;;;;11.13;6.03;;;;;;;;;;5078745;28;20064;-67
2021/06/17 09:45:17;;;;;;;10.63;5.60;;;;;;;;;;5090998;28;20081;-67
2021/06/17 09:47:44;;;;;;;8.82;5.10;;;;;;;;;;5104396;28;20023;-68
2021/06/17 09:50:27;;;;;;;11.88;5.20;;;;;;;;;;5110558;28;20020;-67
2021/06/17 09:52:53;;;;;;;11.35;5.13;;;;;;;;;;5109724;28;20047;-67
2021/06/17 09:55:37;;;;;;;12.02;5.10;;;;;;;;;;5110722;28;20107;-66
2021/06/17 09:58:03;;;;;;;10.43;4.68;;;;;;;;;;5111092;28;20038;-68
2021/06/17 10:00:28;;;;;;;9.68;4.22;;;;;;;;;;5111023;28;20035;-67
2021/06/17 10:02:54;;;;;;;7.10;3.95;;;;;;;;;;5110711;28;20379;-67
2021/06/17 10:05:22;;;;;;;10.70;3.80;;;;;;;;;;5093955;28;20081;-67
2021/06/17 10:07:48;;;;;;;12.65;4.78;;;;;;;;;;5090141;28;20051;-67
2021/06/17 10:10:15;;;;;;;11.23;4.07;;;;;;;;;;5090303;28;20064;-67
2021/06/17 10:12:41;;;;;;;11.88;4.18;;;;;;;;;;5090936;28;20030;-67
2021/06/17 10:15:07;;;;;;;8.10;3.47;;;;;;;;;;5090583;28;20032;-67
2021/06/17 10:17:33;;;;;;;6.47;3.53;;;;;;;;;;5105448;28;20054;-67
2021/06/17 10:20:00;;;;;;;14.35;4.00;;;;;;;;;;5100489;28;20051;-67
2021/06/17 10:22:28;;;;;;;10.63;4.22;;;;;;;;;;5106532;28;20073;-67
2021/06/17 10:24:53;;;;;;;7.38;2.72;;;;;;;;;;5083164;28;20031;-67
2021/06/17 10:27:28;;;;;;;10.40;3.88;;;;;;;;;;5111269;28;20012;-67
2021/06/17 10:29:53;;;;;;;9.48;4.18;;;;;;;;;;5092017;28;20032;-67
2021/06/17 10:32:31;;;;;;;11.07;3.55;;;;;;;;;;5090814;28;20035;-67
2021/06/17 10:34:57;;;;;;;16.10;4.25;;;;;;;;;;5094735;28;20384;-67
2021/06/17 10:37:24;;;;;;;11.55;4.50;;;;;;;;;;5110716;28;20038;-66
2021/06/17 10:39:52;;;;;;;10.07;4.45;;;;;;;;;;5110511;28;20405;-68
2021/06/17 10:42:17;;;;;;;7.93;3.67;;;;;;;;;;5090007;28;20024;-67
2021/06/17 10:44:45;;;;;;;13.55;4.18;;;;;;;;;;5089431;28;20032;-68
2021/06/17 10:47:29;;;;;;;7.97;3.35;;;;;;;;;;5107871;28;20016;-68
2021/06/17 10:49:54;;;;;;;9.35;3.60;;;;;;;;;;5109507;28;20024;-67
2021/06/17 10:52:26;;;;;;;12.55;4.30;;;;;;;;;;5105084;28;20089;-68
2021/06/17 10:54:56;;;;;;;7.53;3.40;;;;;;;;;;5104451;28;20020;-68
2021/06/17 10:57:39;;;;;;;7.90;3.50;;;;;;;;;;5109838;28;20038;-67
2021/06/17 11:00:24;;;;;;;6.93;3.20;;;;;;;;;;5110368;28;20479;-68
2021/06/17 11:02:53;;;;;;;6.90;3.40;;;;;;;;;;5109791;28;20015;-67
2021/06/17 11:08:14;;;;;;;12.60;3.88;;;;;;;;;;5109832;28;20515;-68
2021/06/17 11:10:49;;;;;;;11.00;3.83;;;;;;;;;;5109684;28;20492;-67
2021/06/17 11:13:24;;;;;;;11.02;4.82;;;;;;;;;;5109860;28;20103;-68
2021/06/17 11:15:49;;;;;;;12.75;4.78;;;;;;;;;;5110026;28;20076;-66
2021/06/17 11:18:15;;;;;;;12.90;3.80;;;;;;;;;;5110308;28;20031;-68
2021/06/17 11:20:42;;;;;;;11.95;3.83;;;;;;;;;;5110380;28;20027;-67
2021/06/17 11:23:08;;;;;;;7.32;3.90;;;;;;;;;;5109787;28;20439;-69
2021/06/17 11:25:36;;;;;;;8.02;4.22;;;;;;;;;;5109892;28;20019;-68
2021/06/17 11:28:06;;;;;;;8.10;4.10;;;;;;;;;;5109319;28;20019;-68
2021/06/17 11:30:37;;;;;;;9.18;3.95;;;;;;;;;;5112467;28;20015;-69
2021/06/17 11:33:14;;;;;;;7.30;4.13;;;;;;;;;;5113643;28;20494;-68
2021/06/17 11:35:44;;;;;;;8.10;4.03;;;;;;;;;;5113650;28;20063;-68
2021/06/17 11:38:09;;;;;;;9.07;3.53;;;;;;;;;;5113651;28;20040;-68
2021/06/17 11:40:34;;;;;;;8.82;3.95;;;;;;;;;;5114410;28;20073;-67
2021/06/17 11:43:00;;;;;;;9.10;3.72;;;;;;;;;;5113839;28;20031;-67
2021/06/17 11:45:35;;;;;;;10.00;3.63;;;;;;;;;;5114005;28;20030;-67
2021/06/17 11:48:03;;;;;;;;;;;;;;;;;;5114180;28;20032;-66
2021/06/17 11:50:29;;;;;;;11.07;3.42;;;;;;;;;;5114247;28;20294;-68
2021/06/17 11:52:55;;;;;;;8.82;3.17;;;;;;;;;;5113354;28;20024;-68
2021/06/17 11:55:21;;;;;;;6.72;3.22;;;;;;;;;;5113134;28;20367;-68
2021/06/17 11:57:46;;;;;;;7.68;3.20;;;;;;;;;;5113637;28;20031;-67
2021/06/17 12:00:25;;;;;;;11.20;4.13;;;;;;;;;;5113647;28;20084;-68
2021/06/17 12:02:50;;;;;;;6.90;2.70;;;;;;;;;;5111453;28;20023;-68
2021/06/17 12:05:19;;;;;;;8.02;3.35;;;;;;;;;;5113384;28;20042;-68
2021/06/17 12:07:48;;;;;;;4.40;2.45;;;;;;;;;;5112581;28;20026;-68
2021/06/17 12:10:14;;;;;;;6.72;2.80;;;;;;;;;;5113663;28;20051;-68
2021/06/17 12:12:47;;;;;;;5.03;2.47;;;;;;;;;;5114439;28;20035;-68
2021/06/17 12:15:17;;;;;;;5.47;3.10;;;;;;;;;;5113094;28;20532;-65
2021/06/17 12:17:43;;;;;;;7.03;3.17;;;;;;;;;;5113875;28;20500;-67
2021/06/17 12:20:09;;;;;;;6.68;3.05;;;;;;;;;;5114185;28;20027;-68
2021/06/17 12:22:35;;;;;;;10.68;3.10;;;;;;;;;;5113317;28;20038;-68
2021/06/17 12:25:01;;;;;;;11.80;3.35;;;;;;;;;;5113692;28;20015;-68
2021/06/17 12:27:26;;;;;;;7.28;2.80;;;;;;;;;;5113685;28;20034;-68
2021/06/17 12:29:51;;;;;;;9.68;2.67;;;;;;;;;;5113582;28;20055;-67
2021/06/17 12:32:31;;;;;;;7.20;3.20;;;;;;;;;;5114072;28;20487;-68
2021/06/17 12:35:08;;;;;;;5.88;2.55;;;;;;;;;;5108728;28;20031;-68
2021/06/17 12:37:49;;;;;;;6.18;2.67;;;;;;;;;;5092628;28;20066;-68
2021/06/17 12:40:25;;;;;;;6.13;2.80;;;;;;;;;;5093131;28;20082;-68
2021/06/17 12:43:06;;;;;;;7.10;3.10;;;;;;;;;;5093018;28;20445;-68
2021/06/17 12:45:31;;;;;;;10.55;3.42;;;;;;;;;;5093056;28;20035;-68
2021/06/17 12:48:04;;;;;;;7.40;2.75;;;;;;;;;;5093300;28;20024;-67
2021/06/17 12:53:13;;;;;;;9.15;2.50;;;;;;;;;;5092263;28;20042;-68
2021/06/17 12:55:38;;;;;;;7.10;2.63;;;;;;;;;;5093034;28;20112;-67
2021/06/17 12:58:04;;;;;;;6.25;2.50;;;;;;;;;;5092605;28;20042;-67
2021/06/17 13:00:29;;;;;;;7.75;2.63;;;;;;;;;;5093615;28;20460;-67
2021/06/17 13:02:55;;;;;;;8.10;2.30;;;;;;;;;;5092120;28;20085;-67
2021/06/17 13:05:21;;;;;;;6.35;3.00;;;;;;;;;;5092574;28;20020;-68
2021/06/17 13:07:59;;;;;;;7.72;2.70;;;;;;;;;;5092161;28;20027;-68
2021/06/17 13:10:25;;;;;;;8.52;2.28;;;;;;;;;;5092551;28;20126;-68
2021/06/17 13:12:52;;;;;;;5.82;2.15;;;;;;;;;;5092244;28;20028;-68
2021/06/17 13:15:23;;;;;;;7.85;2.65;;;;;;;;;;5074040;28;20073;-67
2021/06/17 13:17:50;;;;;;;8.73;3.22;;;;;;;;;;5092296;28;20094;-68
2021/06/17 13:20:17;;;;;;;4.70;2.08;;;;;;;;;;5089170;28;20020;-67
2021/06/17 13:22:49;;;;;;;5.88;2.28;;;;;;;;;;5091584;28;20039;-66
2021/06/17 13:25:15;;;;;;;5.82;2.17;;;;;;;;;;5092044;28;20058;-68
2021/06/17 13:27:40;;;;;;;7.55;2.20;;;;;;;;;;5089437;28;20031;-66
2021/06/17 13:30:06;;;;;;;8.05;2.65;;;;;;;;;;5090922;28;20016;-67
2021/06/17 13:32:31;;;;;;;8.45;2.65;;;;;;;;;;5091687;28;20441;-67
2021/06/17 13:34:57;;;;;;;5.95;2.03;;;;;;;;;;5095523;28;20023;-68
2021/06/17 13:37:23;;;;;;;8.52;2.13;;;;;;;;;;5103440;28;20019;-67
2021/06/17 13:39:49;;;;;;;10.30;2.30;;;;;;;;;;5090638;28;20040;-67
2021/06/17 13:42:14;;;;;;;5.93;2.05;;;;;;;;;;5091273;28;20485;-67
2021/06/17 13:44:40;;;;;;;6.68;2.47;;;;;;;;;;5091043;28;20016;-67
2021/06/17 13:47:07;;;;;;;11.02;2.50;;;;;;;;;;5091371;28;20051;-68
2021/06/17 13:49:33;;;;;;;9.95;2.97;;;;;;;;;;5090311;28;20043;-68
2021/06/17 13:51:59;;;;;;;7.55;2.80;;;;;;;;;;5090983;28;20012;-67
2021/06/17 13:54:25;;;;;;;7.10;2.28;;;;;;;;;;5090883;28;20566;-68
2021/06/17 13:56:50;;;;;;;8.13;2.38;;;;;;;;;;5090931;28;20035;-67
2021/06/17 13:59:15;;;;;;;7.28;2.10;;;;;;;;;;5090477;28;20057;-67
2021/06/17 14:01:41;;;;;;;6.78;2.35;;;;;;;;;;5094150;28;20442;-68
2021/06/17 14:04:06;;;;;;;7.60;2.95;;;;;;;;;;5110562;28;20027;-67
2021/06/17 14:06:32;;;;;;;8.18;2.42;;;;;;;;;;5095135;28;20107;-67
2021/06/17 14:08:57;;;;;;;8.65;2.88;;;;;;;;;;5090515;28;20028;-67
2021/06/17 14:11:22;;;;;;;8.20;2.42;;;;;;;;;;5090805;28;20040;-67
2021/06/17 14:13:47;;;;;;;4.82;1.77;;;;;;;;;;5089903;28;20026;-67
2021/06/17 14:16:13;;;;;;;7.18;2.10;;;;;;;;;;5090486;28;20077;-67
2021/06/17 14:18:38;;;;;;;8.57;2.53;;;;;;;;;;5090240;28;20079;-67
2021/06/17 14:21:04;;;;;;;5.35;1.73;;;;;;;;;;5089609;28;20054;-68
2021/06/17 14:23:29;;;;;;;7.30;2.17;;;;;;;;;;5090177;28;20024;-67
2021/06/17 14:25:54;;;;;;;5.70;2.25;;;;;;;;;;5090121;28;20028;-69
2021/06/17 14:28:20;;;;;;;6.53;1.90;;;;;;;;;;5090107;28;20050;-67
2021/06/17 14:30:45;;;;;;;4.75;2.00;;;;;;;;;;5089705;28;20024;-68
2021/06/17 14:33:11;;;;;;;5.85;1.85;;;;;;;;;;5090131;28;20032;-68
2021/06/17 14:35:38;;;;;;;6.78;1.92;;;;;;;;;;5100191;28;20483;-68
2021/06/17 14:38:05;;;;;;;6.90;2.05;;;;;;;;;;5110220;28;20044;-68
2021/06/17 14:40:31;;;;;;;9.00;1.83;;;;;;;;;;5110365;28;20396;-68
2021/06/17 14:42:56;;;;;;;8.85;2.08;;;;;;;;;;5110554;28;20031;-67
2021/06/17 14:45:21;;;;;;;2.72;1.50;;;;;;;;;;5110790;28;20038;-68